createdAt,value
2019-02-09T00:01:04.356Z,7.13
2019-02-09T00:03:33.344Z,7.04
2019-02-09T00:06:02.829Z,7.04
2019-02-09T00:08:31.824Z,7.04
2019-02-09T00:11:00.716Z,7.03
2019-02-09T00:13:29.710Z,7.03
2019-02-09T00:15:58.600Z,7.04
2019-02-09T00:18:27.537Z,7.01
2019-02-09T00:20:56.793Z,7.03
2019-02-09T00:23:25.687Z,7.03
2019-02-09T00:25:54.329Z,7.11
2019-02-09T00:28:23.261Z,7.22
2019-02-09T00:30:52.152Z,7.25
2019-02-09T00:33:21.252Z,7.25
2019-02-09T00:35:50.115Z,7.26
2019-02-09T00:38:18.836Z,7.31
2019-02-09T00:40:47.820Z,7.38
2019-02-09T00:43:17.021Z,7.38
2019-02-09T00:45:45.712Z,7.43
2019-02-09T00:48:14.705Z,7.43
2019-02-09T00:50:43.696Z,7.50
2019-02-09T00:53:12.707Z,7.56
2019-02-09T00:55:41.368Z,7.52
2019-02-09T00:58:10.067Z,7.55
2019-02-09T01:00:39.058Z,7.55
2019-02-09T01:03:08.048Z,7.50
2019-02-09T01:05:40.131Z,7.52
2019-02-09T01:08:09.318Z,7.54
2019-02-09T01:10:38.103Z,7.55
2019-02-09T01:13:06.892Z,7.60
2019-02-09T01:15:35.681Z,7.52
2019-02-09T01:18:04.471Z,7.50
2019-02-09T01:20:33.263Z,7.50
2019-02-09T01:23:02.254Z,7.52
2019-02-09T01:25:31.141Z,7.56
2019-02-09T01:28:00.137Z,7.52
2019-02-09T01:30:28.915Z,7.54
2019-02-09T01:32:57.945Z,7.55
2019-02-09T01:35:27.523Z,7.50
2019-02-09T01:37:56.933Z,7.53
2019-02-09T01:40:26.322Z,7.54
2019-02-09T01:42:55.496Z,7.54
2019-02-09T01:45:29.279Z,7.61
2019-02-09T01:47:58.540Z,7.48
2019-02-09T01:50:28.701Z,7.48
2019-02-09T01:52:57.965Z,7.48
2019-02-09T01:55:28.180Z,7.48
2019-02-09T01:57:57.685Z,7.48
2019-02-09T02:00:28.276Z,7.50
2019-02-09T02:02:57.002Z,7.53
2019-02-09T02:05:25.771Z,7.50
2019-02-09T02:07:55.465Z,7.50
2019-02-09T02:10:27.273Z,7.52
2019-02-09T02:12:56.358Z,7.52
2019-02-09T02:15:25.867Z,7.52
2019-02-09T02:17:55.061Z,7.55
2019-02-09T02:20:25.379Z,7.58
2019-02-09T02:22:54.112Z,7.53
2019-02-09T02:25:23.734Z,7.43
2019-02-09T02:27:52.507Z,7.43
2019-02-09T02:30:23.693Z,7.48
2019-02-09T02:32:52.347Z,7.48
2019-02-09T02:35:21.699Z,7.49
2019-02-09T02:37:50.801Z,7.46
2019-02-09T02:40:20.274Z,7.36
2019-02-09T02:42:49.710Z,7.23
2019-02-09T02:45:18.908Z,7.23
2019-02-09T02:47:48.311Z,7.19
2019-02-09T02:50:18.672Z,7.04
2019-02-09T02:52:47.307Z,7.04
2019-02-09T02:55:20.889Z,7.15
2019-02-09T02:57:51.466Z,7.15
2019-02-09T03:00:31.675Z,7.00
2019-02-09T03:02:53.954Z,7.01
2019-02-09T03:05:23.426Z,7.01
2019-02-09T03:07:53.060Z,6.96
2019-02-09T03:10:21.898Z,6.96
2019-02-09T03:12:50.668Z,7.04
2019-02-09T03:15:21.786Z,7.12
2019-02-09T03:17:50.779Z,7.12
2019-02-09T03:20:20.284Z,7.05
2019-02-09T03:22:49.380Z,7.09
2019-02-09T03:25:23.167Z,7.17
2019-02-09T03:27:52.181Z,7.26
2019-02-09T03:30:22.100Z,7.26
2019-02-09T03:32:51.438Z,7.22
2019-02-09T03:35:21.127Z,7.22
2019-02-09T03:37:50.098Z,7.25
2019-02-09T03:40:20.339Z,7.30
2019-02-09T03:42:49.536Z,7.32
2019-02-09T03:45:20.971Z,7.21
2019-02-09T03:47:50.111Z,7.21
2019-02-09T03:50:19.882Z,7.15
2019-02-09T03:52:48.876Z,6.92
2019-02-09T03:55:17.768Z,6.85
2019-02-09T03:57:46.387Z,6.85
2019-02-09T04:00:17.461Z,6.85
2019-02-09T04:02:46.604Z,6.75
2019-02-09T04:05:15.364Z,6.77
2019-02-09T04:07:44.793Z,6.77
2019-02-09T04:10:15.137Z,6.69
2019-02-09T04:12:43.860Z,6.70
2019-02-09T04:15:15.462Z,6.63
2019-02-09T04:17:44.150Z,6.63
2019-02-09T04:20:14.783Z,6.56
2019-02-09T04:22:43.406Z,6.53
2019-02-09T04:25:13.556Z,6.48
2019-02-09T04:27:42.488Z,6.43
2019-02-09T04:30:14.843Z,6.37
2019-02-09T04:32:43.840Z,6.37
2019-02-09T04:35:12.605Z,6.36
2019-02-09T04:37:41.518Z,6.32
2019-02-09T04:40:11.936Z,6.32
2019-02-09T04:42:40.842Z,6.27
2019-02-09T04:45:10.688Z,6.23
2019-02-09T04:47:39.375Z,6.36
2019-02-09T04:50:09.121Z,6.36
2019-02-09T04:52:37.739Z,6.30
2019-02-09T04:55:08.160Z,6.47
2019-02-09T04:57:36.809Z,6.47
2019-02-09T05:00:07.070Z,6.51
2019-02-09T05:02:35.716Z,6.51
2019-02-09T05:05:05.056Z,6.47
2019-02-09T05:07:34.253Z,6.48
2019-02-09T05:10:03.760Z,6.52
2019-02-09T05:12:32.646Z,6.60
2019-02-09T05:15:01.545Z,6.60
2019-02-09T05:17:30.183Z,6.59
2019-02-09T05:19:59.443Z,6.72
2019-02-09T05:22:28.417Z,6.72
2019-02-09T05:24:57.071Z,6.68
2019-02-09T05:27:25.956Z,6.65
2019-02-09T05:29:54.887Z,6.71
2019-02-09T05:32:23.528Z,6.71
2019-02-09T05:34:52.464Z,6.76
2019-02-09T05:37:21.150Z,6.81
2019-02-09T05:39:50.147Z,6.78
2019-02-09T05:42:19.348Z,6.78
2019-02-09T05:44:48.405Z,6.73
2019-02-09T05:47:17.360Z,6.73
2019-02-09T05:49:46.252Z,6.72
2019-02-09T05:52:15.221Z,6.70
2019-02-09T05:54:43.843Z,6.68
2019-02-09T05:57:12.485Z,6.68
2019-02-09T05:59:41.585Z,6.75
2019-02-09T06:02:10.283Z,6.73
2019-02-09T06:04:38.936Z,6.81
2019-02-09T06:07:07.956Z,6.77
2019-02-09T06:09:36.839Z,6.77
2019-02-09T06:12:05.859Z,6.77
2019-02-09T06:14:35.140Z,6.86
2019-02-09T06:17:04.443Z,6.86
2019-02-09T06:19:33.085Z,6.84
2019-02-09T06:22:02.432Z,6.91
2019-02-09T06:24:31.075Z,6.89
2019-02-09T06:27:00.024Z,6.89
2019-02-09T06:29:29.003Z,6.90
2019-02-09T06:31:57.624Z,6.98
2019-02-09T06:34:26.578Z,6.98
2019-02-09T06:36:55.467Z,6.94
2019-02-09T06:39:24.361Z,7.01
2019-02-09T06:41:53.355Z,6.93
2019-02-09T06:44:22.357Z,6.98
2019-02-09T06:46:51.957Z,6.99
2019-02-09T06:49:20.860Z,6.99
2019-02-09T06:51:49.510Z,7.01
2019-02-09T06:54:18.178Z,7.00
2019-02-09T06:56:46.799Z,7.00
2019-02-09T06:59:15.470Z,7.02
2019-02-09T07:01:48.728Z,7.11
2019-02-09T07:04:14.436Z,7.11
2019-02-09T07:06:43.493Z,7.10
2019-02-09T07:09:12.152Z,7.10
2019-02-09T07:11:40.765Z,7.12
2019-02-09T07:14:09.363Z,7.18
2019-02-09T07:16:38.339Z,7.12
2019-02-09T07:19:07.053Z,7.15
2019-02-09T07:21:36.013Z,7.17
2019-02-09T07:24:05.330Z,7.20
2019-02-09T07:26:33.971Z,7.15
2019-02-09T07:29:02.908Z,7.15
2019-02-09T07:31:31.902Z,7.15
2019-02-09T07:34:00.868Z,7.29
2019-02-09T07:36:29.883Z,7.30
2019-02-09T07:38:58.774Z,7.30
2019-02-09T07:41:28.175Z,7.31
2019-02-09T07:43:57.068Z,7.33
2019-02-09T07:46:25.844Z,7.30
2019-02-09T07:48:54.483Z,7.42
2019-02-09T07:51:23.420Z,7.45
2019-02-09T07:53:52.327Z,7.46
2019-02-09T07:56:21.060Z,7.47
2019-02-09T07:58:49.926Z,7.53
2019-02-09T08:01:18.896Z,7.53
2019-02-09T08:03:47.792Z,7.64
2019-02-09T08:06:16.530Z,7.63
2019-02-09T08:08:45.512Z,7.61
2019-02-09T08:11:14.887Z,7.66
2019-02-09T08:13:43.865Z,7.80
2019-02-09T08:16:13.066Z,7.80
2019-02-09T08:18:42.000Z,7.88
2019-02-09T08:21:10.937Z,7.82
2019-02-09T08:23:39.924Z,7.94
2019-02-09T08:26:08.608Z,7.95
2019-02-09T08:28:37.628Z,7.95
2019-02-09T08:31:06.330Z,8.09
2019-02-09T08:33:35.304Z,8.05
2019-02-09T08:36:04.295Z,8.10
2019-02-09T08:38:33.002Z,8.11
2019-02-09T08:41:01.661Z,8.14
2019-02-09T08:43:31.149Z,8.01
2019-02-09T08:46:00.184Z,8.12
2019-02-09T08:48:28.914Z,8.07
2019-02-09T08:51:01.405Z,8.09
2019-02-09T08:53:30.330Z,8.10
2019-02-09T08:56:05.565Z,8.00
2019-02-09T08:58:34.453Z,8.03
2019-02-09T09:01:03.571Z,7.98
2019-02-09T09:03:32.557Z,7.96
2019-02-09T09:06:01.243Z,7.84
2019-02-09T09:08:30.532Z,7.78
2019-02-09T09:11:01.408Z,7.78
2019-02-09T09:13:30.333Z,7.86
2019-02-09T09:16:00.698Z,7.92
2019-02-09T09:18:29.987Z,8.06
2019-02-09T09:21:01.474Z,8.17
2019-02-09T09:23:30.741Z,8.24
2019-02-09T09:25:59.736Z,8.34
2019-02-09T09:28:28.419Z,8.34
2019-02-09T09:30:57.177Z,8.36
2019-02-09T09:33:25.895Z,8.28
2019-02-09T09:35:54.574Z,8.45
2019-02-09T09:38:23.533Z,8.44
2019-02-09T09:40:52.487Z,8.49
2019-02-09T09:43:21.465Z,8.56
2019-02-09T09:45:50.462Z,8.55
2019-02-09T09:48:20.271Z,8.50
2019-02-09T09:50:49.476Z,8.59
2019-02-09T09:53:18.362Z,8.64
2019-02-09T09:55:47.336Z,8.66
2019-02-09T09:58:16.446Z,8.71
2019-02-09T10:00:45.455Z,9.19
2019-02-09T10:03:14.053Z,9.19
2019-02-09T10:05:42.760Z,9.63
2019-02-09T10:08:11.520Z,9.51
2019-02-09T10:10:40.206Z,9.48
2019-02-09T10:13:08.912Z,9.54
2019-02-09T10:15:37.972Z,9.66
2019-02-09T10:18:06.863Z,9.62
2019-02-09T10:20:35.894Z,9.59
2019-02-09T10:23:04.685Z,9.46
2019-02-09T10:25:33.851Z,9.46
2019-02-09T10:28:02.603Z,9.83
2019-02-09T10:30:31.840Z,10.22
2019-02-09T10:33:00.834Z,10.00
2019-02-09T10:35:29.717Z,9.57
2019-02-09T10:37:59.138Z,9.65
2019-02-09T10:40:29.826Z,9.66
2019-02-09T10:43:00.665Z,9.73
2019-02-09T10:45:30.089Z,9.57
2019-02-09T10:47:59.599Z,9.55
2019-02-09T10:50:33.604Z,9.40
2019-02-09T10:53:02.606Z,9.57
2019-02-09T10:55:31.598Z,9.64
2019-02-09T10:58:00.316Z,9.79
2019-02-09T11:00:32.352Z,9.82
2019-02-09T11:03:01.040Z,9.43
2019-02-09T11:05:30.037Z,9.43
2019-02-09T11:07:59.231Z,9.46
2019-02-09T11:10:28.087Z,10.07
2019-02-09T11:12:57.283Z,10.44
2019-02-09T11:15:26.315Z,10.85
2019-02-09T11:17:55.210Z,11.53
2019-02-09T11:20:24.302Z,11.81
2019-02-09T11:22:53.377Z,12.08
2019-02-09T11:25:22.495Z,11.50
2019-02-09T11:27:51.140Z,10.99
2019-02-09T11:30:21.407Z,10.53
2019-02-09T11:32:50.397Z,10.87
2019-02-09T11:35:19.702Z,11.08
2019-02-09T11:37:49.002Z,11.40
2019-02-09T11:40:19.311Z,11.21
2019-02-09T11:42:48.145Z,11.28
2019-02-09T11:45:19.405Z,11.14
2019-02-09T11:47:48.337Z,11.43
2019-02-09T11:50:18.066Z,11.16
2019-02-09T11:52:46.840Z,10.63
2019-02-09T11:55:16.359Z,10.44
2019-02-09T11:57:45.360Z,10.11
2019-02-09T12:00:19.305Z,9.86
2019-02-09T12:02:47.997Z,9.80
2019-02-09T12:05:17.073Z,9.44
2019-02-09T12:07:46.037Z,9.04
2019-02-09T12:10:15.751Z,8.17
2019-02-09T12:12:45.337Z,7.73
2019-02-09T12:15:22.275Z,7.57
2019-02-09T12:17:50.901Z,7.52
2019-02-09T12:20:19.674Z,7.40
2019-02-09T12:22:49.117Z,8.09
2019-02-09T12:25:19.944Z,8.81
2019-02-09T12:27:48.951Z,8.92
2019-02-09T12:30:20.447Z,9.48
2019-02-09T12:32:49.507Z,9.81
2019-02-09T12:35:18.601Z,9.97
2019-02-09T12:37:48.006Z,9.91
2019-02-09T12:40:22.263Z,9.53
2019-02-09T12:42:51.322Z,9.29
2019-02-09T12:45:21.140Z,9.31
2019-02-09T12:47:50.329Z,9.31
2019-02-09T12:50:19.779Z,9.35
2019-02-09T12:52:48.587Z,9.43
2019-02-09T12:55:17.615Z,9.41
2019-02-09T12:57:46.606Z,9.45
2019-02-09T13:00:24.614Z,9.40
2019-02-09T13:02:53.444Z,9.49
2019-02-09T13:05:22.181Z,9.42
2019-02-09T13:07:50.895Z,9.50
2019-02-09T13:10:20.383Z,9.51
2019-02-09T13:12:49.399Z,9.48
2019-02-09T13:15:23.245Z,9.51
2019-02-09T13:17:52.484Z,9.50
2019-02-09T13:20:23.551Z,9.50
2019-02-09T13:22:52.322Z,10.02
2019-02-09T13:25:21.302Z,9.90
2019-02-09T13:27:51.086Z,9.86
2019-02-09T13:30:22.201Z,9.68
2019-02-09T13:32:51.151Z,9.54
2019-02-09T13:35:20.155Z,9.50
2019-02-09T13:37:48.832Z,9.48
2019-02-09T13:40:18.525Z,9.51
2019-02-09T13:42:47.534Z,9.50
2019-02-09T13:45:24.691Z,9.52
2019-02-09T13:47:53.715Z,9.48
2019-02-09T13:50:22.708Z,9.45
2019-02-09T13:52:52.010Z,9.50
2019-02-09T13:55:21.004Z,9.54
2019-02-09T13:57:49.999Z,9.49
2019-02-09T14:00:20.729Z,9.45
2019-02-09T14:02:50.132Z,9.51
2019-02-09T14:05:19.130Z,9.53
2019-02-09T14:07:48.112Z,9.45
2019-02-09T14:10:18.544Z,9.41
2019-02-09T14:12:47.693Z,9.41
2019-02-09T14:15:24.495Z,9.47
2019-02-09T14:17:53.558Z,9.41
2019-02-09T14:20:22.725Z,9.38
2019-02-09T14:22:51.813Z,9.37
2019-02-09T14:25:20.759Z,9.37
2019-02-09T14:27:50.823Z,9.51
2019-02-09T14:30:21.811Z,9.51
2019-02-09T14:32:50.857Z,9.45
2019-02-09T14:35:20.161Z,9.61
2019-02-09T14:37:48.890Z,9.63
2019-02-09T14:40:19.917Z,9.62
2019-02-09T14:42:48.879Z,9.61
2019-02-09T14:45:20.330Z,9.64
2019-02-09T14:47:50.055Z,9.61
2019-02-09T14:50:19.035Z,9.61
2019-02-09T14:52:47.701Z,9.65
2019-02-09T14:55:19.840Z,9.73
2019-02-09T14:57:48.556Z,9.73
2019-02-09T15:00:19.657Z,9.89
2019-02-09T15:02:53.954Z,9.82
2019-02-09T15:05:19.378Z,9.77
2019-02-09T15:07:48.369Z,9.73
2019-02-09T15:10:18.710Z,9.57
2019-02-09T15:12:48.380Z,9.71
2019-02-09T15:15:20.223Z,9.55
2019-02-09T15:17:49.441Z,9.65
2019-02-09T15:20:20.482Z,9.81
2019-02-09T15:22:49.192Z,9.81
2019-02-09T15:25:17.898Z,9.71
2019-02-09T15:27:46.527Z,9.61
2019-02-09T15:30:18.709Z,9.61
2019-02-09T15:32:47.411Z,9.68
2019-02-09T15:35:16.199Z,9.61
2019-02-09T15:37:44.816Z,9.69
2019-02-09T15:40:16.054Z,9.75
2019-02-09T15:42:44.780Z,9.61
2019-02-09T15:45:14.784Z,9.61
2019-02-09T15:47:43.418Z,9.65
2019-02-09T15:50:12.768Z,9.53
2019-02-09T15:52:41.410Z,9.44
2019-02-09T15:55:12.124Z,9.42
2019-02-09T15:57:40.752Z,9.36
2019-02-09T16:00:22.099Z,9.35
2019-02-09T16:02:51.921Z,9.34
2019-02-09T16:05:21.005Z,9.22
2019-02-09T16:07:49.999Z,9.22
2019-02-09T16:10:19.824Z,9.24
2019-02-09T16:12:48.636Z,9.16
2019-02-09T16:15:19.837Z,9.13
2019-02-09T16:17:48.861Z,9.06
2019-02-09T16:20:20.716Z,8.98
2019-02-09T16:22:50.108Z,8.96
2019-02-09T16:25:18.801Z,8.89
2019-02-09T16:27:48.099Z,8.74
2019-02-09T16:30:18.902Z,8.35
2019-02-09T16:32:47.888Z,8.20
2019-02-09T16:35:17.886Z,8.14
2019-02-09T16:37:46.835Z,8.13
2019-02-09T16:40:17.642Z,8.20
2019-02-09T16:42:46.977Z,8.16
2019-02-09T16:45:23.746Z,8.18
2019-02-09T16:47:52.874Z,8.18
2019-02-09T16:50:21.685Z,8.19
2019-02-09T16:52:50.592Z,8.18
2019-02-09T16:55:19.405Z,8.06
2019-02-09T16:57:49.623Z,8.06
2019-02-09T17:00:27.749Z,8.08
2019-02-09T17:02:56.740Z,8.07
2019-02-09T17:05:25.428Z,8.05
2019-02-09T17:07:54.206Z,7.97
2019-02-09T17:10:23.614Z,7.90
2019-02-09T17:12:52.325Z,7.94
2019-02-09T17:15:22.318Z,7.89
2019-02-09T17:17:51.315Z,7.94
2019-02-09T17:20:20.677Z,7.94
2019-02-09T17:22:49.822Z,7.93
2019-02-09T17:25:18.959Z,7.92
2019-02-09T17:27:48.932Z,7.84
2019-02-09T17:30:20.685Z,7.73
2019-02-09T17:32:50.193Z,7.74
2019-02-09T17:35:18.896Z,7.76
2019-02-09T17:37:48.595Z,7.73
2019-02-09T17:40:19.696Z,7.77
2019-02-09T17:42:53.447Z,7.75
2019-02-09T17:45:26.364Z,7.70
2019-02-09T17:47:55.627Z,7.71
2019-02-09T17:50:24.723Z,7.61
2019-02-09T17:52:53.818Z,7.65
2019-02-09T17:55:22.557Z,7.77
2019-02-09T17:57:51.596Z,7.76
2019-02-09T18:00:24.944Z,7.86
2019-02-09T18:02:53.580Z,7.84
2019-02-09T18:05:22.233Z,7.83
2019-02-09T18:07:51.160Z,7.92
2019-02-09T18:10:20.562Z,7.96
2019-02-09T18:12:49.185Z,8.00
2019-02-09T18:15:18.237Z,8.05
2019-02-09T18:17:47.233Z,8.10
2019-02-09T18:20:16.876Z,8.06
2019-02-09T18:22:45.839Z,8.05
2019-02-09T18:25:16.233Z,8.13
2019-02-09T18:27:45.154Z,8.12
2019-02-09T18:30:19.662Z,8.15
2019-02-09T18:32:48.352Z,8.10
2019-02-09T18:35:17.648Z,8.17
2019-02-09T18:37:47.169Z,8.18
2019-02-09T18:40:18.212Z,8.13
2019-02-09T18:42:47.511Z,8.13
2019-02-09T18:45:21.365Z,8.20
2019-02-09T18:47:50.213Z,8.22
2019-02-09T18:50:21.369Z,8.19
2019-02-09T18:52:50.658Z,8.15
2019-02-09T18:55:21.500Z,8.07
2019-02-09T18:57:50.224Z,8.07
2019-02-09T19:00:21.834Z,8.01
2019-02-09T19:02:50.516Z,7.88
2019-02-09T19:05:19.257Z,7.88
2019-02-09T19:07:48.298Z,7.75
2019-02-09T19:10:19.672Z,7.35
2019-02-09T19:12:48.645Z,7.15
2019-02-09T19:15:18.580Z,7.11
2019-02-09T19:17:47.558Z,6.97
2019-02-09T19:20:40.618Z,6.97
2019-02-09T19:23:09.711Z,6.78
2019-02-09T19:25:38.716Z,6.78
2019-02-09T19:28:07.616Z,6.64
2019-02-09T19:30:36.356Z,6.60
2019-02-09T19:33:05.778Z,6.52
2019-02-09T19:35:34.789Z,6.58
2019-02-09T19:38:03.412Z,6.58
2019-02-09T19:40:32.045Z,6.66
2019-02-09T19:43:01.051Z,6.74
2019-02-09T19:45:31.582Z,6.77
2019-02-09T19:48:00.403Z,6.77
2019-02-09T19:50:29.788Z,6.92
2019-02-09T19:52:58.762Z,7.01
2019-02-09T19:55:28.659Z,6.99
2019-02-09T19:57:57.377Z,7.13
2019-02-09T20:00:28.309Z,7.24
2019-02-09T20:02:57.149Z,7.24
2019-02-09T20:05:26.223Z,7.29
2019-02-09T20:07:55.542Z,7.29
2019-02-09T20:10:27.359Z,7.38
2019-02-09T20:12:56.068Z,7.38
2019-02-09T20:15:25.135Z,7.38
2019-02-09T20:17:54.696Z,7.38
2019-02-09T20:20:23.737Z,7.40
2019-02-09T20:22:52.733Z,7.39
2019-02-09T20:25:22.208Z,7.42
2019-02-09T20:27:51.128Z,7.37
2019-02-09T20:30:25.253Z,7.36
2019-02-09T20:32:56.919Z,7.25
2019-02-09T20:35:27.714Z,7.31
2019-02-09T20:37:57.161Z,7.28
2019-02-09T20:40:31.235Z,7.29
2019-02-09T20:43:02.152Z,7.29
2019-02-09T20:45:30.718Z,7.29
2019-02-09T20:47:59.780Z,7.24
2019-02-09T20:50:28.768Z,7.29
2019-02-09T20:52:57.404Z,7.29
2019-02-09T20:55:26.649Z,7.46
2019-02-09T20:57:55.302Z,7.46
2019-02-09T21:00:25.354Z,7.45
2019-02-09T21:02:54.339Z,7.54
2019-02-09T21:05:23.345Z,7.62
2019-02-09T21:07:52.373Z,7.62
2019-02-09T21:10:26.721Z,7.58
2019-02-09T21:12:55.892Z,7.62
2019-02-09T21:15:25.959Z,7.76
2019-02-09T21:17:54.714Z,7.73
2019-02-09T21:20:23.755Z,7.75
2019-02-09T21:22:53.169Z,7.78
2019-02-09T21:25:24.730Z,7.70
2019-02-09T21:27:53.413Z,7.75
2019-02-09T21:30:22.915Z,7.76
2019-02-09T21:32:51.906Z,7.71
2019-02-09T21:35:20.849Z,7.73
2019-02-09T21:37:49.892Z,7.74
2019-02-09T21:40:20.525Z,7.81
2019-02-09T21:42:49.925Z,7.81
2019-02-09T21:45:19.846Z,7.84
2019-02-09T21:47:49.061Z,7.84
2019-02-09T21:50:20.183Z,7.86
2019-02-09T21:52:48.824Z,7.79
2019-02-09T21:55:18.068Z,7.85
2019-02-09T21:57:46.886Z,7.85
2019-02-09T22:00:29.847Z,7.91
2019-02-09T22:02:59.289Z,7.88
2019-02-09T22:05:28.789Z,7.84
2019-02-09T22:07:57.694Z,7.92
2019-02-09T22:10:30.264Z,7.98
2019-02-09T22:12:58.126Z,7.94
2019-02-09T22:15:27.838Z,8.04
2019-02-09T22:17:56.874Z,8.00
2019-02-09T22:20:25.927Z,8.06
2019-02-09T22:22:55.431Z,7.99
2019-02-09T22:25:24.730Z,8.00
2019-02-09T22:27:53.822Z,8.10
2019-02-09T22:30:24.968Z,8.05
2019-02-09T22:32:54.266Z,8.08
2019-02-09T22:35:23.203Z,8.07
2019-02-09T22:37:54.923Z,8.05
2019-02-09T22:40:29.258Z,8.05
2019-02-09T22:42:58.058Z,8.06
2019-02-09T22:45:27.362Z,8.05
2019-02-09T22:47:56.527Z,8.12
2019-02-09T22:50:33.680Z,8.08
2019-02-09T22:53:02.708Z,8.00
2019-02-09T22:55:31.447Z,7.98
2019-02-09T22:58:00.136Z,8.04
2019-02-09T23:00:51.100Z,8.02
2019-02-09T23:03:21.737Z,8.04
2019-02-09T23:06:27.750Z,7.91
2019-02-09T23:08:56.841Z,7.91
2019-02-09T23:11:25.494Z,7.98
2019-02-09T23:13:54.563Z,7.95
2019-02-09T23:16:23.759Z,7.94
2019-02-09T23:18:52.652Z,7.91
2019-02-09T23:21:21.647Z,7.93
2019-02-09T23:23:50.540Z,7.92
2019-02-09T23:26:19.542Z,7.93
2019-02-09T23:28:48.570Z,7.92
2019-02-09T23:31:17.575Z,7.77
2019-02-09T23:33:46.517Z,7.81
2019-02-09T23:36:16.566Z,7.81
2019-02-09T23:38:45.325Z,7.70
2019-02-09T23:41:13.986Z,7.69
2019-02-09T23:43:42.610Z,7.69
2019-02-09T23:46:11.897Z,7.75
2019-02-09T23:48:40.949Z,7.70
2019-02-09T23:51:09.596Z,7.66
2019-02-09T23:53:38.668Z,7.71
2019-02-09T23:56:07.666Z,7.71
2019-02-09T23:58:36.867Z,7.68
